Time;durP1;ratioP1;P1;durP2;ratioP2;P2;SDS_P1;SDS_P2;PMS_P1;PMS_P2;Temp;Humidity;BMP_temperature;BMP_pressure;BME280_temperature;BME280_humidity;BME280_pressure;Samples;Min_cycle;Max_cycle;Signal;HPM_P1;HPM_P2
2021/01/10 00:01:26;;;;;;;25.10;14.30;;;;;;;;;;5023774;28;20226;-83
2021/01/10 00:03:52;;;;;;;23.10;14.55;;;;;;;;;;5024218;28;20476;-83
2021/01/10 00:06:18;;;;;;;23.77;14.25;;;;;;;;;;5034943;28;20301;-83
2021/01/10 00:08:44;;;;;;;28.27;15.10;;;;;;;;;;5039383;28;20171;-83
2021/01/10 00:11:10;;;;;;;27.27;14.60;;;;;;;;;;5039343;28;20509;-83
2021/01/10 00:13:36;;;;;;;25.40;14.63;;;;;;;;;;5019370;28;20178;-83
2021/01/10 00:16:02;;;;;;;25.30;13.13;;;;;;;;;;5019340;28;20461;-82
2021/01/10 00:18:28;;;;;;;23.85;13.60;;;;;;;;;;5019021;28;20194;-83
2021/01/10 00:20:54;;;;;;;28.10;14.40;;;;;;;;;;5028597;28;20205;-83
2021/01/10 00:23:20;;;;;;;30.42;15.25;;;;;;;;;;5032558;28;20421;-83
2021/01/10 00:25:46;;;;;;;31.48;14.40;;;;;;;;;;5021880;28;20253;-82
2021/01/10 00:28:12;;;;;;;24.73;14.20;;;;;;;;;;5024365;28;20194;-83
2021/01/10 00:30:38;;;;;;;23.85;13.38;;;;;;;;;;5035372;28;20711;-82
2021/01/10 00:33:04;;;;;;;24.60;13.50;;;;;;;;;;5022778;28;20186;-83
2021/01/10 00:35:30;;;;;;;23.60;13.13;;;;;;;;;;5019548;28;20233;-83
2021/01/10 00:37:57;;;;;;;22.55;13.43;;;;;;;;;;5019641;28;20197;-83
2021/01/10 00:40:24;;;;;;;24.83;13.90;;;;;;;;;;5015794;28;20270;-83
2021/01/10 00:42:50;;;;;;;25.90;13.90;;;;;;;;;;5024843;28;20183;-83
2021/01/10 00:45:17;;;;;;;20.20;13.90;;;;;;;;;;5032581;28;20198;-83
2021/01/10 00:47:43;;;;;;;20.17;12.50;;;;;;;;;;5027275;28;20212;-82
2021/01/10 00:50:10;;;;;;;24.70;13.70;;;;;;;;;;5031785;28;20179;-83
2021/01/10 00:52:36;;;;;;;22.35;13.63;;;;;;;;;;5018237;28;20175;-84
2021/01/10 00:55:03;;;;;;;22.80;12.85;;;;;;;;;;5021207;28;20632;-83
2021/01/10 00:57:29;;;;;;;22.15;13.32;;;;;;;;;;5022646;28;20182;-83
2021/01/10 00:59:55;;;;;;;20.48;12.70;;;;;;;;;;5024013;28;20246;-83
2021/01/10 01:02:21;;;;;;;24.05;13.93;;;;;;;;;;5020484;28;20193;-83
2021/01/10 01:04:47;;;;;;;19.92;11.75;;;;;;;;;;5023507;28;20233;-83
2021/01/10 01:07:13;;;;;;;27.63;13.00;;;;;;;;;;5021397;28;20198;-83
2021/01/10 01:09:39;;;;;;;19.73;13.18;;;;;;;;;;5036083;28;20217;-83
2021/01/10 01:12:05;;;;;;;22.17;12.85;;;;;;;;;;5021289;28;20191;-82
2021/01/10 01:14:32;;;;;;;22.83;13.85;;;;;;;;;;5018827;28;20183;-83
2021/01/10 01:16:58;;;;;;;22.55;12.15;;;;;;;;;;5016422;28;20250;-83
2021/01/10 01:19:24;;;;;;;30.08;14.00;;;;;;;;;;5015544;28;20252;-83
2021/01/10 01:21:53;;;;;;;19.55;10.73;;;;;;;;;;5037325;28;20225;-82
2021/01/10 01:24:21;;;;;;;21.15;12.10;;;;;;;;;;5029682;28;20669;-83
2021/01/10 01:26:46;;;;;;;23.45;12.40;;;;;;;;;;5023168;28;20199;-82
2021/01/10 01:29:13;;;;;;;18.95;12.13;;;;;;;;;;5035646;28;20178;-82
2021/01/10 01:31:39;;;;;;;19.13;11.55;;;;;;;;;;5019442;28;20213;-83
2021/01/10 01:34:05;;;;;;;25.88;13.35;;;;;;;;;;5033406;28;20194;-83
2021/01/10 01:36:31;;;;;;;22.05;13.23;;;;;;;;;;5033721;28;20183;-83
2021/01/10 01:38:57;;;;;;;21.13;12.25;;;;;;;;;;5023258;28;20201;-82
2021/01/10 01:41:24;;;;;;;23.52;12.40;;;;;;;;;;5031938;28;20166;-82
2021/01/10 01:43:50;;;;;;;18.55;12.30;;;;;;;;;;5014787;28;20194;-83
2021/01/10 01:46:25;;;;;;;24.20;13.25;;;;;;;;;;5019019;28;20206;-83
2021/01/10 01:48:51;;;;;;;26.58;13.95;;;;;;;;;;5035376;28;20182;-83
2021/01/10 01:51:16;;;;;;;28.10;14.65;;;;;;;;;;5029232;28;20186;-83
2021/01/10 01:53:42;;;;;;;28.08;14.25;;;;;;;;;;5018773;28;20174;-82
2021/01/10 01:56:08;;;;;;;25.38;14.07;;;;;;;;;;5015710;28;20178;-83
2021/01/10 01:58:34;;;;;;;26.10;14.90;;;;;;;;;;5018181;28;20190;-83
2021/01/10 02:01:00;;;;;;;29.95;13.93;;;;;;;;;;5018148;28;20229;-83
2021/01/10 02:03:33;;;;;;;28.05;14.32;;;;;;;;;;5017940;28;20245;-83
2021/01/10 02:06:02;;;;;;;21.20;12.02;;;;;;;;;;5022606;28;20581;-83
2021/01/10 02:08:29;;;;;;;26.13;14.48;;;;;;;;;;5032678;28;20178;-83
2021/01/10 02:10:58;;;;;;;24.30;13.85;;;;;;;;;;5014707;28;20218;-83
2021/01/10 02:13:26;;;;;;;24.80;14.65;;;;;;;;;;5019511;28;20186;-82
2021/01/10 02:15:53;;;;;;;30.13;15.98;;;;;;;;;;5019440;28;20280;-82
2021/01/10 02:18:19;;;;;;;32.65;15.15;;;;;;;;;;5018577;28;20277;-83
2021/01/10 02:20:45;;;;;;;25.88;15.05;;;;;;;;;;5024712;28;20190;-82
2021/01/10 02:23:20;;;;;;;28.67;13.88;;;;;;;;;;5033556;28;20206;-82
2021/01/10 02:25:47;;;;;;;32.40;16.20;;;;;;;;;;5016369;28;20206;-82
2021/01/10 02:28:19;;;;;;;25.75;13.32;;;;;;;;;;5018151;28;20217;-83
2021/01/10 02:30:45;;;;;;;22.60;12.88;;;;;;;;;;5034875;28;20182;-83
2021/01/10 02:33:27;;;;;;;23.70;14.32;;;;;;;;;;5030789;28;20595;-82
2021/01/10 02:35:54;;;;;;;24.95;13.85;;;;;;;;;;5035550;28;20179;-83
2021/01/10 02:38:23;;;;;;;28.30;14.65;;;;;;;;;;5031364;28;20202;-83
2021/01/10 02:41:07;;;;;;;30.05;13.73;;;;;;;;;;5019051;28;20183;-83
2021/01/10 02:43:34;;;;;;;28.20;14.63;;;;;;;;;;5035505;28;20252;-83
2021/01/10 02:46:06;;;;;;;27.80;14.05;;;;;;;;;;5018007;28;20237;-83
2021/01/10 02:48:32;;;;;;;32.33;14.90;;;;;;;;;;5033070;28;20190;-83
2021/01/10 02:50:58;;;;;;;24.23;13.20;;;;;;;;;;5021705;28;20202;-83
2021/01/10 02:53:24;;;;;;;27.88;15.68;;;;;;;;;;5016892;28;20181;-83
2021/01/10 02:55:50;;;;;;;24.88;14.27;;;;;;;;;;5018525;28;20186;-83
2021/01/10 02:58:20;;;;;;;27.50;13.90;;;;;;;;;;5018195;28;20185;-83
2021/01/10 03:00:47;;;;;;;31.70;15.68;;;;;;;;;;5034467;28;20230;-83
2021/01/10 03:03:13;;;;;;;25.77;12.70;;;;;;;;;;5013109;28;20194;-82
2021/01/10 03:05:40;;;;;;;22.15;12.32;;;;;;;;;;5041897;28;20179;-83
2021/01/10 03:08:06;;;;;;;29.98;15.30;;;;;;;;;;5018543;28;20746;-83
2021/01/10 03:10:32;;;;;;;27.35;15.15;;;;;;;;;;5022805;28;20193;-83
2021/01/10 03:12:58;;;;;;;27.73;15.20;;;;;;;;;;5019881;28;20297;-82
2021/01/10 03:15:24;;;;;;;23.58;12.75;;;;;;;;;;5020239;28;20180;-83
2021/01/10 03:17:51;;;;;;;24.08;14.77;;;;;;;;;;5020041;28;20352;-82
2021/01/10 03:20:21;;;;;;;25.63;13.35;;;;;;;;;;5024399;28;20202;-83
2021/01/10 03:22:48;;;;;;;25.00;13.30;;;;;;;;;;5020902;28;20194;-83
2021/01/10 03:25:15;;;;;;;27.23;15.68;;;;;;;;;;5021714;28;20574;-83
2021/01/10 03:27:41;;;;;;;28.15;14.70;;;;;;;;;;5037846;28;20217;-82
2021/01/10 03:30:08;;;;;;;23.85;14.25;;;;;;;;;;5018439;28;20194;-83
2021/01/10 03:32:34;;;;;;;26.27;14.05;;;;;;;;;;5036040;28;20178;-83
2021/01/10 03:35:00;;;;;;;25.08;13.73;;;;;;;;;;5021539;28;20467;-82
2021/01/10 03:37:26;;;;;;;24.05;12.93;;;;;;;;;;5021362;28;20210;-82
2021/01/10 03:39:53;;;;;;;26.35;13.00;;;;;;;;;;5021309;28;20191;-83
2021/01/10 03:42:21;;;;;;;23.83;13.20;;;;;;;;;;5036594;28;20198;-82
2021/01/10 03:44:47;;;;;;;23.27;12.25;;;;;;;;;;5027466;28;20170;-82
2021/01/10 03:47:13;;;;;;;21.50;12.50;;;;;;;;;;5034155;28;20233;-83
2021/01/10 03:49:39;;;;;;;20.60;11.93;;;;;;;;;;5021229;28;20182;-83
2021/01/10 03:52:05;;;;;;;32.17;14.00;;;;;;;;;;5018080;28;20275;-82
2021/01/10 03:54:31;;;;;;;22.23;12.02;;;;;;;;;;5035192;28;20277;-82
2021/01/10 03:56:57;;;;;;;24.95;13.38;;;;;;;;;;5024255;28;20187;-80
2021/01/10 03:59:23;;;;;;;18.80;12.00;;;;;;;;;;5040339;28;20186;-83
2021/01/10 04:01:49;;;;;;;28.27;12.70;;;;;;;;;;5034002;28;20445;-83
2021/01/10 04:04:15;;;;;;;20.35;11.10;;;;;;;;;;5018329;28;20446;-83
2021/01/10 04:06:41;;;;;;;22.30;13.02;;;;;;;;;;5033296;28;20226;-83
2021/01/10 04:09:07;;;;;;;22.30;12.75;;;;;;;;;;5037486;28;20206;-83
2021/01/10 04:11:33;;;;;;;19.42;11.23;;;;;;;;;;5039734;28;20185;-83
2021/01/10 04:13:59;;;;;;;18.35;11.05;;;;;;;;;;5020542;28;20196;-83
2021/01/10 04:16:25;;;;;;;23.55;11.65;;;;;;;;;;5026095;28;20218;-83
2021/01/10 04:18:51;;;;;;;19.52;11.40;;;;;;;;;;5036504;28;20183;-83
2021/01/10 04:21:17;;;;;;;20.13;12.40;;;;;;;;;;5032853;28;20191;-82
2021/01/10 04:23:43;;;;;;;25.15;12.55;;;;;;;;;;5024095;28;20210;-82
2021/01/10 04:26:09;;;;;;;19.88;11.23;;;;;;;;;;5032400;28;20198;-82
2021/01/10 04:28:35;;;;;;;20.95;12.90;;;;;;;;;;5016383;28;20187;-82
2021/01/10 04:31:01;;;;;;;18.73;11.30;;;;;;;;;;5026681;28;20259;-83
2021/01/10 04:33:27;;;;;;;15.95;9.15;;;;;;;;;;5033929;28;20458;-83
2021/01/10 04:35:53;;;;;;;16.75;10.05;;;;;;;;;;5024695;28;20222;-83
2021/01/10 04:38:19;;;;;;;15.32;9.77;;;;;;;;;;5032827;28;20213;-82
2021/01/10 04:40:45;;;;;;;18.27;11.27;;;;;;;;;;5016101;28;20265;-82
2021/01/10 04:43:12;;;;;;;15.85;8.43;;;;;;;;;;5017723;28;20282;-83
2021/01/10 04:45:38;;;;;;;17.33;9.38;;;;;;;;;;5031901;28;20187;-83
2021/01/10 04:48:05;;;;;;;15.48;8.25;;;;;;;;;;5037561;28;20249;-83
2021/01/10 04:50:33;;;;;;;15.60;8.77;;;;;;;;;;5019087;28;20228;-82
2021/01/10 04:52:59;;;;;;;14.75;8.40;;;;;;;;;;5018357;28;20206;-83
2021/01/10 04:55:27;;;;;;;18.45;9.43;;;;;;;;;;5020099;28;20201;-82
2021/01/10 04:58:00;;;;;;;14.88;8.82;;;;;;;;;;5035155;28;20194;-83
2021/01/10 05:00:27;;;;;;;11.77;8.90;;;;;;;;;;5018242;28;20941;-82
2021/01/10 05:02:55;;;;;;;16.13;8.13;;;;;;;;;;5023111;28;20744;-83
2021/01/10 05:05:23;;;;;;;18.38;8.73;;;;;;;;;;5021838;28;20179;-83
2021/01/10 05:07:49;;;;;;;13.85;8.68;;;;;;;;;;5029874;28;20209;-82
2021/01/10 05:10:15;;;;;;;18.38;9.43;;;;;;;;;;5036549;28;20194;-82
2021/01/10 05:12:41;;;;;;;13.82;8.45;;;;;;;;;;5021790;28;20196;-82
2021/01/10 05:15:07;;;;;;;20.92;10.75;;;;;;;;;;5018649;28;20179;-83
2021/01/10 05:17:33;;;;;;;13.10;9.18;;;;;;;;;;5018838;28;20190;-82
2021/01/10 05:19:59;;;;;;;15.88;10.05;;;;;;;;;;5030801;28;20198;-82
2021/01/10 05:22:25;;;;;;;17.10;8.82;;;;;;;;;;5015597;28;20186;-82
2021/01/10 05:24:51;;;;;;;15.48;9.20;;;;;;;;;;5035286;28;20179;-82
2021/01/10 05:27:17;;;;;;;18.17;8.13;;;;;;;;;;5031535;28;20218;-83
2021/01/10 05:29:44;;;;;;;18.15;10.25;;;;;;;;;;5026150;28;20546;-82
2021/01/10 05:32:10;;;;;;;14.88;9.00;;;;;;;;;;5017048;28;20573;-83
2021/01/10 05:34:37;;;;;;;14.45;8.95;;;;;;;;;;5015132;28;20183;-83
2021/01/10 05:37:13;;;;;;;18.00;9.55;;;;;;;;;;5016325;28;20499;-83
2021/01/10 05:39:43;;;;;;;20.88;10.10;;;;;;;;;;5030737;28;20194;-83
2021/01/10 05:42:09;;;;;;;14.68;8.05;;;;;;;;;;5035573;28;20195;-83
2021/01/10 05:44:41;;;;;;;18.27;9.80;;;;;;;;;;5033781;28;20181;-83
2021/01/10 05:47:08;;;;;;;20.48;10.30;;;;;;;;;;5030623;28;20198;-83
2021/01/10 05:49:34;;;;;;;18.25;9.45;;;;;;;;;;5018964;28;20182;-82
2021/01/10 05:52:07;;;;;;;15.77;9.02;;;;;;;;;;5018087;28;20182;-83
2021/01/10 05:54:36;;;;;;;18.83;9.07;;;;;;;;;;5033554;28;20220;-83
2021/01/10 05:57:06;;;;;;;13.02;8.05;;;;;;;;;;5021526;28;20225;-83
2021/01/10 05:59:36;;;;;;;19.08;9.88;;;;;;;;;;5032755;28;20260;-83
2021/01/10 06:02:03;;;;;;;17.58;10.10;;;;;;;;;;5030780;28;20231;-83
2021/01/10 06:04:30;;;;;;;15.77;9.05;;;;;;;;;;5018782;28;20186;-82
2021/01/10 06:06:57;;;;;;;19.48;10.70;;;;;;;;;;5021863;28;20202;-83
2021/01/10 06:09:23;;;;;;;17.85;9.85;;;;;;;;;;5021773;28;20214;-83
2021/01/10 06:11:49;;;;;;;16.00;9.80;;;;;;;;;;5021699;28;20660;-82
2021/01/10 06:14:22;;;;;;;14.05;9.95;;;;;;;;;;5037624;28;20257;-82
2021/01/10 06:16:52;;;;;;;18.25;9.43;;;;;;;;;;5017519;28;20236;-83
2021/01/10 06:19:18;;;;;;;13.85;8.82;;;;;;;;;;5018161;28;20289;-83
2021/01/10 06:21:48;;;;;;;15.32;7.65;;;;;;;;;;5035050;28;20526;-81
2021/01/10 06:24:20;;;;;;;13.60;8.43;;;;;;;;;;5035788;28;20229;-81
2021/01/10 06:26:48;;;;;;;16.77;9.15;;;;;;;;;;5026248;28;20210;-82
2021/01/10 06:29:15;;;;;;;16.73;9.00;;;;;;;;;;5031556;28;20404;-83
2021/01/10 06:31:45;;;;;;;16.33;9.55;;;;;;;;;;5020940;28;20194;-82
2021/01/10 06:34:11;;;;;;;14.35;9.60;;;;;;;;;;5034062;28;20578;-82
2021/01/10 06:36:41;;;;;;;20.30;9.05;;;;;;;;;;5018889;28;20182;-83
2021/01/10 06:39:07;;;;;;;14.80;7.45;;;;;;;;;;5019464;28;20218;-83
2021/01/10 06:41:46;;;;;;;16.13;9.38;;;;;;;;;;5035907;28;20178;-83
2021/01/10 06:44:12;;;;;;;16.88;10.35;;;;;;;;;;5035994;28;20192;-82
2021/01/10 06:46:38;;;;;;;14.07;8.75;;;;;;;;;;5024409;28;20257;-82
2021/01/10 06:49:04;;;;;;;16.48;9.45;;;;;;;;;;5037675;28;20256;-82
2021/01/10 06:51:31;;;;;;;14.60;8.30;;;;;;;;;;5022442;28;20595;-82
2021/01/10 06:53:57;;;;;;;15.40;9.55;;;;;;;;;;5020587;28;20191;-82
2021/01/10 06:56:23;;;;;;;14.10;7.95;;;;;;;;;;5051351;28;20237;-82
2021/01/10 06:59:02;;;;;;;13.57;7.85;;;;;;;;;;5021982;28;20198;-82
2021/01/10 07:01:47;;;;;;;11.20;7.32;;;;;;;;;;5039408;28;20224;-82
2021/01/10 07:04:13;;;;;;;14.35;8.32;;;;;;;;;;5019278;28;20198;-83
2021/01/10 07:06:46;;;;;;;10.25;6.82;;;;;;;;;;5034214;28;20210;-82
2021/01/10 07:09:12;;;;;;;11.10;7.85;;;;;;;;;;5034610;28;20185;-82
2021/01/10 07:11:39;;;;;;;12.05;8.10;;;;;;;;;;5041263;28;20198;-83
2021/01/10 07:14:05;;;;;;;14.55;7.65;;;;;;;;;;5017939;28;20218;-82
2021/01/10 07:16:31;;;;;;;12.00;8.10;;;;;;;;;;5022004;28;20252;-83
2021/01/10 07:19:03;;;;;;;15.68;8.55;;;;;;;;;;5022718;28;20457;-83
2021/01/10 07:21:29;;;;;;;16.60;8.23;;;;;;;;;;5022090;28;20184;-82
2021/01/10 07:24:13;;;;;;;13.02;8.25;;;;;;;;;;5022613;28;20179;-82
2021/01/10 07:26:40;;;;;;;15.63;8.25;;;;;;;;;;5041985;28;20288;-82
2021/01/10 07:29:25;;;;;;;12.77;7.80;;;;;;;;;;5036418;28;20724;-83
2021/01/10 07:32:01;;;;;;;16.10;8.93;;;;;;;;;;5021552;28;20194;-82
2021/01/10 07:34:28;;;;;;;12.15;6.95;;;;;;;;;;5020863;28;20225;-82
2021/01/10 07:36:55;;;;;;;12.00;7.72;;;;;;;;;;5022440;28;20190;-82
2021/01/10 07:39:26;;;;;;;19.50;8.85;;;;;;;;;;5036539;28;20189;-82
2021/01/10 07:41:53;;;;;;;13.98;8.13;;;;;;;;;;5023512;28;20638;-83
2021/01/10 07:44:20;;;;;;;14.25;8.07;;;;;;;;;;5023914;28;20190;-83
2021/01/10 07:46:53;;;;;;;15.48;10.10;;;;;;;;;;5023583;28;20190;-82
2021/01/10 07:49:23;;;;;;;17.45;9.25;;;;;;;;;;5034343;28;20186;-82
2021/01/10 07:51:49;;;;;;;13.05;8.85;;;;;;;;;;5019456;28;20254;-83
2021/01/10 07:54:15;;;;;;;17.52;9.52;;;;;;;;;;5021361;28;20265;-82
2021/01/10 07:56:41;;;;;;;15.07;8.50;;;;;;;;;;5023037;28;20183;-82
2021/01/10 07:59:15;;;;;;;14.10;9.10;;;;;;;;;;5019605;28;20194;-82
2021/01/10 08:01:47;;;;;;;16.17;8.95;;;;;;;;;;5037727;28;20659;-82
2021/01/10 08:04:26;;;;;;;17.42;8.07;;;;;;;;;;5036948;28;20194;-82
2021/01/10 08:06:59;;;;;;;14.38;9.48;;;;;;;;;;5034139;28;20743;-82
2021/01/10 08:09:32;;;;;;;13.05;9.13;;;;;;;;;;5022242;28;20261;-82
2021/01/10 08:11:59;;;;;;;13.30;8.10;;;;;;;;;;5018724;28;20277;-82
2021/01/10 08:14:25;;;;;;;20.27;9.93;;;;;;;;;;5039071;28;20178;-82
2021/01/10 08:16:51;;;;;;;10.77;7.32;;;;;;;;;;5031483;28;20195;-81
2021/01/10 08:19:18;;;;;;;11.70;7.80;;;;;;;;;;5029258;28;20221;-82
2021/01/10 08:21:44;;;;;;;14.48;8.07;;;;;;;;;;5038474;28;20232;-81
2021/01/10 08:24:10;;;;;;;15.63;8.82;;;;;;;;;;5036821;28;20194;-82
2021/01/10 08:26:40;;;;;;;14.70;8.68;;;;;;;;;;5029080;28;20799;-82
2021/01/10 08:29:06;;;;;;;13.70;8.05;;;;;;;;;;5025390;28;20197;-82
2021/01/10 08:31:33;;;;;;;13.60;7.63;;;;;;;;;;5022487;28;20355;-82
2021/01/10 08:34:00;;;;;;;14.05;8.30;;;;;;;;;;5017362;28;20191;-82
2021/01/10 08:36:26;;;;;;;12.05;7.78;;;;;;;;;;5028115;28;20190;-82
2021/01/10 08:38:54;;;;;;;16.33;8.50;;;;;;;;;;5038489;28;20186;-82
2021/01/10 08:41:24;;;;;;;13.80;8.27;;;;;;;;;;5019415;28;20452;-82
2021/01/10 08:43:51;;;;;;;16.45;9.35;;;;;;;;;;5021809;28;20201;-81
2021/01/10 08:46:17;;;;;;;17.75;9.48;;;;;;;;;;5021385;28;20230;-81
2021/01/10 08:48:43;;;;;;;14.00;9.60;;;;;;;;;;5023618;28;20191;-81
2021/01/10 08:51:10;;;;;;;13.85;8.48;;;;;;;;;;5037629;28;20198;-80
2021/01/10 08:53:40;;;;;;;17.48;9.07;;;;;;;;;;5034692;28;20593;-81
2021/01/10 08:56:15;;;;;;;16.83;9.40;;;;;;;;;;5017559;28;20209;-81
2021/01/10 08:58:43;;;;;;;11.32;7.28;;;;;;;;;;5030287;28;20190;-80
2021/01/10 09:01:11;;;;;;;14.02;10.10;;;;;;;;;;5034028;28;20230;-81
2021/01/10 09:03:37;;;;;;;19.27;10.60;;;;;;;;;;5019993;28;20196;-79
2021/01/10 09:06:03;;;;;;;18.70;10.10;;;;;;;;;;5023098;28;20273;-81
2021/01/10 09:08:40;;;;;;;17.50;9.48;;;;;;;;;;5035769;28;20218;-81
2021/01/10 09:11:10;;;;;;;14.73;9.55;;;;;;;;;;5054116;28;20240;-81
2021/01/10 09:13:40;;;;;;;14.10;9.32;;;;;;;;;;5020122;28;20671;-81
2021/01/10 09:16:07;;;;;;;18.58;10.35;;;;;;;;;;5017906;28;20629;-81
2021/01/10 09:18:36;;;;;;;16.42;9.15;;;;;;;;;;5020594;28;20191;-81
2021/01/10 09:21:15;;;;;;;17.80;8.75;;;;;;;;;;5017517;28;20170;-81
2021/01/10 09:23:55;;;;;;;14.95;8.38;;;;;;;;;;5020769;28;20663;-81
2021/01/10 09:26:25;;;;;;;15.88;9.35;;;;;;;;;;5022841;28;20541;-81
2021/01/10 09:28:51;;;;;;;19.17;10.75;;;;;;;;;;5029467;28;20194;-81
2021/01/10 09:31:17;;;;;;;22.27;11.80;;;;;;;;;;5021633;28;20213;-81
2021/01/10 09:33:43;;;;;;;21.45;10.77;;;;;;;;;;5035304;28;20186;-80
2021/01/10 09:36:16;;;;;;;17.42;10.38;;;;;;;;;;5036092;28;20183;-81
2021/01/10 09:38:53;;;;;;;16.05;9.90;;;;;;;;;;5035151;28;20178;-81
2021/01/10 09:41:19;;;;;;;15.98;10.02;;;;;;;;;;5046502;28;20186;-80
2021/01/10 09:43:47;;;;;;;22.30;13.18;;;;;;;;;;5015262;28;20190;-81
2021/01/10 09:46:23;;;;;;;22.38;11.88;;;;;;;;;;5016852;28;20222;-81
2021/01/10 09:48:53;;;;;;;22.30;12.55;;;;;;;;;;5019735;28;20261;-81
2021/01/10 09:51:19;;;;;;;20.38;11.15;;;;;;;;;;5031749;28;20179;-82
2021/01/10 09:53:47;;;;;;;26.70;12.15;;;;;;;;;;5025769;28;20174;-81
2021/01/10 09:56:36;;;;;;;22.48;12.48;;;;;;;;;;5015973;28;20178;-81
2021/01/10 09:59:02;;;;;;;21.42;12.30;;;;;;;;;;5018530;28;20198;-81
2021/01/10 10:01:35;;;;;;;17.58;10.77;;;;;;;;;;5030463;28;20222;-81
2021/01/10 10:04:01;;;;;;;21.75;12.30;;;;;;;;;;5016241;28;20194;-81
2021/01/10 10:06:27;;;;;;;21.60;12.95;;;;;;;;;;5017692;28;20261;-81
2021/01/10 10:08:54;;;;;;;23.35;12.27;;;;;;;;;;5023819;28;20182;-81
2021/01/10 10:11:20;;;;;;;25.17;11.73;;;;;;;;;;5015710;28;20181;-81
2021/01/10 10:13:46;;;;;;;18.13;10.93;;;;;;;;;;5029709;28;20286;-81
2021/01/10 10:16:18;;;;;;;19.88;11.27;;;;;;;;;;5026674;28;20256;-81
2021/01/10 10:18:44;;;;;;;19.33;11.20;;;;;;;;;;5020555;28;20186;-81
2021/01/10 10:21:10;;;;;;;15.70;9.93;;;;;;;;;;5019495;28;20193;-82
2021/01/10 10:23:36;;;;;;;18.38;11.68;;;;;;;;;;5033568;28;20487;-81
2021/01/10 10:26:02;;;;;;;21.30;12.23;;;;;;;;;;5018389;28;20210;-82
2021/01/10 10:28:28;;;;;;;23.67;13.10;;;;;;;;;;5014545;28;20442;-81
2021/01/10 10:30:54;;;;;;;17.92;11.48;;;;;;;;;;5019253;28;20210;-82
2021/01/10 10:33:20;;;;;;;21.87;13.30;;;;;;;;;;5031961;28;20183;-82
2021/01/10 10:35:46;;;;;;;22.17;11.77;;;;;;;;;;5024905;28;20475;-80
2021/01/10 10:38:12;;;;;;;21.03;11.00;;;;;;;;;;5030629;28;20644;-81
2021/01/10 10:40:39;;;;;;;16.85;11.18;;;;;;;;;;5022629;28;20437;-81
2021/01/10 10:43:05;;;;;;;16.77;10.65;;;;;;;;;;5027154;28;20186;-81
2021/01/10 10:45:31;;;;;;;17.95;9.90;;;;;;;;;;5019649;28;20282;-81
2021/01/10 10:47:56;;;;;;;21.98;11.30;;;;;;;;;;5022848;28;20250;-81
2021/01/10 10:50:23;;;;;;;15.30;10.20;;;;;;;;;;5031033;28;20179;-81
2021/01/10 10:52:49;;;;;;;14.95;9.75;;;;;;;;;;5018691;28;21706;-82
2021/01/10 10:55:17;;;;;;;17.55;10.57;;;;;;;;;;5025407;28;20250;-81
2021/01/10 10:57:43;;;;;;;14.88;9.73;;;;;;;;;;5035355;28;20189;-82
2021/01/10 11:00:10;;;;;;;14.85;9.45;;;;;;;;;;5015480;28;20222;-81
2021/01/10 11:02:36;;;;;;;14.13;9.98;;;;;;;;;;5033324;28;20179;-82
2021/01/10 11:05:02;;;;;;;17.10;10.23;;;;;;;;;;5029518;28;20217;-82
2021/01/10 11:07:31;;;;;;;17.20;10.23;;;;;;;;;;5017947;28;20464;-82
2021/01/10 11:09:57;;;;;;;23.95;16.88;;;;;;;;;;5016898;28;20186;-82
2021/01/10 11:12:23;;;;;;;30.38;19.15;;;;;;;;;;5031017;28;20322;-82
2021/01/10 11:14:49;;;;;;;19.52;12.52;;;;;;;;;;5016891;28;20174;-82
2021/01/10 11:17:15;;;;;;;19.85;12.95;;;;;;;;;;5030897;28;20175;-82
2021/01/10 11:19:41;;;;;;;18.20;10.80;;;;;;;;;;5017042;28;20286;-82
2021/01/10 11:22:07;;;;;;;17.25;11.13;;;;;;;;;;5032151;28;20250;-82
2021/01/10 11:24:34;;;;;;;18.30;10.43;;;;;;;;;;5034905;28;20598;-82
2021/01/10 11:27:00;;;;;;;20.23;10.15;;;;;;;;;;5025090;28;20202;-82
2021/01/10 11:29:26;;;;;;;22.50;12.60;;;;;;;;;;5024448;28;20178;-82
2021/01/10 11:31:52;;;;;;;18.30;12.15;;;;;;;;;;5034820;28;20171;-82
2021/01/10 11:34:19;;;;;;;22.02;12.95;;;;;;;;;;5021643;28;20226;-82
2021/01/10 11:36:46;;;;;;;18.27;10.95;;;;;;;;;;5021229;28;20214;-80
2021/01/10 11:39:12;;;;;;;18.00;12.40;;;;;;;;;;5033026;28;20194;-82
2021/01/10 11:41:49;;;;;;;18.27;11.50;;;;;;;;;;5041305;28;20209;-81
2021/01/10 11:44:15;;;;;;;20.88;14.25;;;;;;;;;;5039290;28;20198;-81
2021/01/10 11:46:42;;;;;;;17.45;11.70;;;;;;;;;;5024433;28;20217;-82
2021/01/10 11:49:09;;;;;;;26.55;13.40;;;;;;;;;;5026832;28;20193;-81
2021/01/10 11:51:35;;;;;;;21.60;12.93;;;;;;;;;;5035734;28;20237;-81
2021/01/10 11:54:00;;;;;;;20.35;12.48;;;;;;;;;;5023012;28;20182;-81
2021/01/10 11:56:26;;;;;;;23.80;13.60;;;;;;;;;;5034229;28;20244;-81
2021/01/10 11:58:53;;;;;;;17.45;11.48;;;;;;;;;;5017075;28;20450;-82
2021/01/10 12:01:19;;;;;;;18.75;11.90;;;;;;;;;;5026611;28;20218;-81
2021/01/10 12:03:45;;;;;;;17.58;12.85;;;;;;;;;;5021562;28;20712;-81
2021/01/10 12:06:11;;;;;;;20.60;12.25;;;;;;;;;;5022889;28;20210;-80
2021/01/10 12:08:37;;;;;;;20.15;11.88;;;;;;;;;;5038827;28;20189;-81
2021/01/10 12:11:03;;;;;;;21.35;13.13;;;;;;;;;;5021090;28;20197;-81
2021/01/10 12:13:29;;;;;;;20.55;11.25;;;;;;;;;;5025897;28;20179;-81
2021/01/10 12:15:55;;;;;;;20.53;12.30;;;;;;;;;;5035607;28;20632;-82
2021/01/10 12:18:21;;;;;;;20.77;12.85;;;;;;;;;;5018337;28;20462;-81
2021/01/10 12:20:47;;;;;;;15.45;11.23;;;;;;;;;;5024066;28;20189;-81
2021/01/10 12:23:13;;;;;;;17.85;11.00;;;;;;;;;;5019494;28;20186;-81
2021/01/10 12:25:39;;;;;;;17.65;11.05;;;;;;;;;;5031889;28;20186;-81
2021/01/10 12:28:05;;;;;;;16.40;9.17;;;;;;;;;;5033866;28;20676;-81
2021/01/10 12:30:31;;;;;;;16.15;9.85;;;;;;;;;;5019626;28;20445;-81
2021/01/10 12:32:58;;;;;;;14.85;8.80;;;;;;;;;;5025097;28;20178;-81
2021/01/10 12:35:24;;;;;;;18.92;9.70;;;;;;;;;;5032466;28;20178;-81
2021/01/10 12:37:50;;;;;;;16.65;12.48;;;;;;;;;;5031684;28;20185;-81
2021/01/10 12:40:16;;;;;;;22.65;11.75;;;;;;;;;;5020532;28;20254;-79
2021/01/10 12:42:42;;;;;;;16.25;10.75;;;;;;;;;;5037053;28;20249;-82
2021/01/10 12:45:10;;;;;;;15.20;9.27;;;;;;;;;;5016364;28;20202;-81
2021/01/10 12:47:36;;;;;;;15.07;10.10;;;;;;;;;;5034273;28;20206;-81
2021/01/10 12:50:02;;;;;;;19.70;12.27;;;;;;;;;;5019961;28;20224;-81
2021/01/10 12:52:28;;;;;;;16.88;11.43;;;;;;;;;;5011405;28;20182;-81
2021/01/10 12:54:54;;;;;;;16.60;11.43;;;;;;;;;;5023297;28;20257;-81
2021/01/10 12:57:20;;;;;;;21.35;13.60;;;;;;;;;;5019391;28;20476;-81
2021/01/10 12:59:46;;;;;;;15.23;11.77;;;;;;;;;;5026853;28;20313;-82
2021/01/10 13:02:12;;;;;;;24.52;14.38;;;;;;;;;;5023652;28;20610;-82
2021/01/10 13:04:41;;;;;;;24.00;14.10;;;;;;;;;;5019926;28;20178;-80
2021/01/10 13:07:07;;;;;;;16.85;11.80;;;;;;;;;;5017825;28;20532;-82
2021/01/10 13:09:35;;;;;;;12.63;9.80;;;;;;;;;;5036820;28;20183;-82
2021/01/10 13:12:01;;;;;;;16.95;10.02;;;;;;;;;;5021438;28;20514;-81
2021/01/10 13:14:27;;;;;;;17.02;10.18;;;;;;;;;;5018337;28;20208;-82
2021/01/10 13:16:53;;;;;;;13.40;9.35;;;;;;;;;;5015843;28;20186;-82
2021/01/10 13:19:20;;;;;;;13.45;9.02;;;;;;;;;;5022762;28;20186;-82
2021/01/10 13:21:46;;;;;;;14.05;10.00;;;;;;;;;;5021130;28;20205;-83
2021/01/10 13:24:12;;;;;;;13.68;7.50;;;;;;;;;;5031907;28;20182;-82
2021/01/10 13:26:39;;;;;;;15.52;9.73;;;;;;;;;;5039334;28;20198;-82
2021/01/10 13:29:06;;;;;;;13.38;8.60;;;;;;;;;;5021638;28;20209;-83
2021/01/10 13:31:35;;;;;;;14.38;8.77;;;;;;;;;;5023984;28;20191;-83
2021/01/10 13:34:01;;;;;;;13.57;8.50;;;;;;;;;;5034055;28;20186;-82
2021/01/10 13:36:27;;;;;;;12.48;7.75;;;;;;;;;;5036288;28;20595;-83
2021/01/10 13:38:53;;;;;;;12.32;7.82;;;;;;;;;;5020164;28;20332;-82
2021/01/10 13:41:20;;;;;;;14.30;8.60;;;;;;;;;;5032605;28;20186;-83
2021/01/10 13:43:46;;;;;;;15.32;9.38;;;;;;;;;;5030428;28;20194;-83
2021/01/10 13:46:16;;;;;;;12.23;7.50;;;;;;;;;;5031928;28;20235;-83
2021/01/10 13:48:42;;;;;;;11.95;8.07;;;;;;;;;;5019470;28;20193;-83
2021/01/10 13:51:24;;;;;;;13.90;8.57;;;;;;;;;;5020981;28;20197;-82
2021/01/10 13:53:50;;;;;;;11.30;7.70;;;;;;;;;;5036004;28;20179;-83
2021/01/10 13:56:20;;;;;;;11.80;7.70;;;;;;;;;;5021657;28;20237;-81
2021/01/10 13:58:47;;;;;;;13.13;8.77;;;;;;;;;;5032258;28;20201;-83
2021/01/10 14:01:13;;;;;;;11.75;7.97;;;;;;;;;;5022667;28;20309;-80
2021/01/10 14:03:39;;;;;;;11.00;7.30;;;;;;;;;;5018150;28;20671;-81
2021/01/10 14:06:09;;;;;;;10.55;8.10;;;;;;;;;;5021505;28;20194;-82
2021/01/10 14:08:35;;;;;;;12.60;7.13;;;;;;;;;;5024285;28;20183;-83
2021/01/10 14:11:01;;;;;;;12.35;9.13;;;;;;;;;;5020691;28;20186;-82
2021/01/10 14:13:28;;;;;;;12.80;8.35;;;;;;;;;;5014578;28;20183;-82
2021/01/10 14:15:54;;;;;;;11.63;9.13;;;;;;;;;;5036244;28;20174;-83
2021/01/10 14:18:21;;;;;;;14.38;8.05;;;;;;;;;;5031728;28;20216;-83
2021/01/10 14:20:47;;;;;;;12.82;7.80;;;;;;;;;;5026895;28;20189;-82
2021/01/10 14:23:13;;;;;;;13.15;9.00;;;;;;;;;;5018942;28;20266;-83